createdAt,value
2017-10-15T00:00:17.139Z,59.10
2017-10-15T00:02:44.593Z,59.10
2017-10-15T00:05:12.043Z,59.10
2017-10-15T00:07:39.514Z,59.00
2017-10-15T00:10:06.966Z,59.10
2017-10-15T00:12:34.416Z,59.10
2017-10-15T00:15:01.867Z,59.10
2017-10-15T00:17:29.323Z,59.10
2017-10-15T00:19:56.778Z,59.10
2017-10-15T00:22:24.238Z,59.10
2017-10-15T00:24:52.458Z,59.10
2017-10-15T00:27:20.699Z,59.10
2017-10-15T00:29:48.190Z,59.10
2017-10-15T00:32:16.414Z,59.20
2017-10-15T00:34:43.873Z,59.10
2017-10-15T00:37:11.332Z,59.20
2017-10-15T00:39:38.787Z,59.20
2017-10-15T00:42:06.241Z,59.20
2017-10-15T00:44:33.691Z,59.20
2017-10-15T00:47:01.152Z,59.20
2017-10-15T00:49:28.757Z,59.30
2017-10-15T00:51:56.205Z,59.20
2017-10-15T00:54:23.671Z,59.20
2017-10-15T00:56:51.126Z,59.30
2017-10-15T00:59:18.585Z,59.90
2017-10-15T01:01:46.039Z,59.30
2017-10-15T01:04:13.494Z,59.40
2017-10-15T01:06:40.975Z,59.40
2017-10-15T01:09:09.190Z,59.30
2017-10-15T01:11:36.651Z,59.30
2017-10-15T01:14:04.102Z,59.20
2017-10-15T01:16:31.563Z,59.30
2017-10-15T01:18:59.027Z,59.30
2017-10-15T01:24:01.222Z,59.20
2017-10-15T01:26:28.704Z,59.60
2017-10-15T01:28:56.158Z,59.90
2017-10-15T01:31:23.630Z,59.30
2017-10-15T01:33:51.070Z,59.30
2017-10-15T01:36:18.521Z,59.30
2017-10-15T01:38:46.003Z,59.30
2017-10-15T01:41:13.442Z,59.30
2017-10-15T01:43:40.898Z,59.30
2017-10-15T01:46:08.342Z,59.30
2017-10-15T01:48:35.803Z,59.40
2017-10-15T01:51:03.258Z,59.30
2017-10-15T01:53:30.706Z,59.40
2017-10-15T01:55:58.170Z,59.30
2017-10-15T01:58:25.630Z,59.30
2017-10-15T02:00:53.117Z,59.40
2017-10-15T02:03:20.574Z,59.40
2017-10-15T02:05:48.022Z,59.40
2017-10-15T02:08:15.478Z,59.30
2017-10-15T02:10:42.936Z,59.30
2017-10-15T02:13:10.398Z,59.30
2017-10-15T02:15:38.606Z,59.40
2017-10-15T02:18:06.090Z,60.00
2017-10-15T02:20:33.542Z,59.50
2017-10-15T02:23:00.999Z,59.60
2017-10-15T02:25:28.458Z,59.50
2017-10-15T02:27:55.914Z,59.40
2017-10-15T02:30:23.362Z,59.40
2017-10-15T02:32:51.588Z,59.40
2017-10-15T02:35:20.551Z,59.40
2017-10-15T02:37:48.004Z,59.40
2017-10-15T02:40:15.467Z,59.40
2017-10-15T02:42:42.912Z,59.50
2017-10-15T02:45:10.373Z,59.40
2017-10-15T02:47:37.837Z,59.50
2017-10-15T02:50:05.317Z,59.50
2017-10-15T02:52:32.770Z,59.50
2017-10-15T02:55:00.230Z,59.50
2017-10-15T02:57:27.689Z,59.50
2017-10-15T02:59:55.173Z,59.50
2017-10-15T03:02:23.388Z,59.60
2017-10-15T03:04:50.874Z,59.60
2017-10-15T03:07:18.323Z,59.60
2017-10-15T03:09:45.787Z,59.60
2017-10-15T03:12:13.251Z,59.60
2017-10-15T03:14:40.722Z,59.60
2017-10-15T03:17:08.179Z,59.60
2017-10-15T03:19:36.381Z,59.50
2017-10-15T03:22:03.850Z,59.50
2017-10-15T03:24:31.286Z,59.60
2017-10-15T03:26:59.514Z,59.60
2017-10-15T03:29:26.957Z,59.60
2017-10-15T03:31:55.186Z,59.60
2017-10-15T03:34:22.646Z,59.60
2017-10-15T03:36:50.879Z,59.70
2017-10-15T03:39:18.335Z,59.60
2017-10-15T03:41:45.794Z,59.70
2017-10-15T03:44:13.254Z,59.70
2017-10-15T03:46:40.718Z,59.70
2017-10-15T03:49:08.170Z,59.70
2017-10-15T03:51:35.622Z,59.60
2017-10-15T03:54:03.078Z,59.70
2017-10-15T03:56:30.550Z,59.70
2017-10-15T03:58:58.014Z,59.70
2017-10-15T04:01:25.468Z,59.60
2017-10-15T04:03:52.925Z,59.70
2017-10-15T04:06:20.383Z,59.60
2017-10-15T04:08:47.846Z,59.60
2017-10-15T04:11:15.293Z,59.70
2017-10-15T04:13:42.753Z,59.70
2017-10-15T04:16:10.209Z,59.70
2017-10-15T04:18:37.669Z,59.80
2017-10-15T04:21:05.121Z,59.70
2017-10-15T04:23:32.566Z,59.70
2017-10-15T04:26:00.027Z,59.70
2017-10-15T04:28:27.497Z,59.70
2017-10-15T04:30:54.941Z,59.80
2017-10-15T04:33:22.390Z,59.80
2017-10-15T04:35:49.841Z,60.00
2017-10-15T04:38:17.299Z,59.90
2017-10-15T04:40:44.756Z,59.90
2017-10-15T04:43:12.194Z,59.80
2017-10-15T04:45:39.658Z,59.90
2017-10-15T04:48:07.882Z,59.80
2017-10-15T04:50:35.338Z,59.80
2017-10-15T04:53:02.819Z,60.00
2017-10-15T04:55:31.038Z,60.00
2017-10-15T04:57:58.509Z,60.10
2017-10-15T05:00:26.723Z,60.00
2017-10-15T05:02:54.942Z,60.00
2017-10-15T05:05:22.391Z,59.90
2017-10-15T05:07:49.842Z,60.00
2017-10-15T05:10:17.301Z,60.00
2017-10-15T05:12:44.762Z,60.10
2017-10-15T05:15:12.214Z,60.10
2017-10-15T05:17:39.671Z,60.00
2017-10-15T05:20:07.148Z,60.00
2017-10-15T05:22:35.362Z,60.00
2017-10-15T05:25:03.577Z,60.00
2017-10-15T05:27:31.037Z,60.00
2017-10-15T05:29:58.501Z,59.90
2017-10-15T05:32:25.973Z,59.90
2017-10-15T05:34:53.422Z,60.00
2017-10-15T05:37:20.886Z,59.90
2017-10-15T05:39:49.098Z,60.00
2017-10-15T05:42:17.334Z,59.90
2017-10-15T05:44:44.790Z,59.90
2017-10-15T05:47:12.254Z,60.10
2017-10-15T05:49:39.706Z,60.20
2017-10-15T05:52:07.925Z,60.20
2017-10-15T05:54:35.374Z,60.20
2017-10-15T05:57:03.602Z,60.90
2017-10-15T05:59:31.054Z,60.20
2017-10-15T06:01:59.289Z,60.10
2017-10-15T06:04:27.526Z,60.20
2017-10-15T06:06:54.977Z,60.10
2017-10-15T06:09:22.443Z,60.90
2017-10-15T06:11:49.893Z,60.10
2017-10-15T06:14:17.335Z,60.00
2017-10-15T06:16:44.786Z,60.20
2017-10-15T06:19:12.254Z,60.40
2017-10-15T06:21:39.723Z,60.30
2017-10-15T06:24:07.202Z,60.30
2017-10-15T06:26:34.666Z,60.20
2017-10-15T06:29:02.122Z,60.40
2017-10-15T06:31:29.572Z,60.50
2017-10-15T06:33:57.028Z,60.30
2017-10-15T06:36:24.465Z,60.40
2017-10-15T06:38:52.702Z,60.40
2017-10-15T06:41:20.137Z,60.30
2017-10-15T06:43:48.370Z,60.40
2017-10-15T06:46:15.805Z,60.40
2017-10-15T06:48:44.023Z,60.30
2017-10-15T06:51:11.474Z,60.30
2017-10-15T06:53:38.919Z,60.10
2017-10-15T06:56:06.374Z,60.00
2017-10-15T06:58:33.831Z,59.80
2017-10-15T07:01:01.294Z,59.90
2017-10-15T07:03:28.750Z,59.80
2017-10-15T07:05:56.194Z,59.80
2017-10-15T07:08:23.642Z,59.90
2017-10-15T07:10:51.102Z,59.90
2017-10-15T07:13:18.553Z,59.90
2017-10-15T07:15:46.006Z,59.90
2017-10-15T07:18:13.460Z,60.00
2017-10-15T07:20:40.926Z,60.00
2017-10-15T07:23:08.371Z,60.00
2017-10-15T07:25:35.857Z,59.90
2017-10-15T07:28:03.301Z,59.80
2017-10-15T07:30:30.774Z,59.60
2017-10-15T07:32:58.218Z,59.50
2017-10-15T07:35:25.666Z,59.30
2017-10-15T07:37:53.893Z,59.20
2017-10-15T07:40:21.351Z,59.20
2017-10-15T07:42:48.822Z,59.20
2017-10-15T07:45:17.030Z,59.50
2017-10-15T07:47:44.487Z,59.60
2017-10-15T07:50:11.927Z,58.90
2017-10-15T07:52:40.156Z,58.40
2017-10-15T07:55:07.612Z,58.40
2017-10-15T07:57:35.078Z,58.20
2017-10-15T08:00:02.532Z,57.80
2017-10-15T08:02:30.754Z,57.30
2017-10-15T08:04:58.201Z,57.30
2017-10-15T08:07:25.666Z,56.90
2017-10-15T08:09:53.115Z,56.70
2017-10-15T08:12:20.600Z,56.40
2017-10-15T08:14:48.054Z,55.90
2017-10-15T08:17:15.513Z,55.40
2017-10-15T08:19:43.727Z,54.40
2017-10-15T08:22:11.178Z,54.40
2017-10-15T08:24:38.630Z,53.90
2017-10-15T08:27:06.877Z,53.10
2017-10-15T08:29:34.334Z,53.10
2017-10-15T08:32:01.808Z,52.80
2017-10-15T08:34:29.253Z,52.40
2017-10-15T08:36:56.709Z,52.10
2017-10-15T08:39:24.166Z,51.70
2017-10-15T08:41:51.634Z,51.60
2017-10-15T08:44:19.107Z,51.30
2017-10-15T08:46:46.552Z,51.10
2017-10-15T08:49:14.010Z,50.80
2017-10-15T08:51:41.449Z,50.50
2017-10-15T08:54:08.913Z,50.40
2017-10-15T08:56:36.366Z,50.20
2017-10-15T08:59:03.820Z,49.80
2017-10-15T09:01:31.263Z,49.40
2017-10-15T09:03:58.731Z,49.30
2017-10-15T09:06:26.187Z,49.00
2017-10-15T09:08:53.645Z,48.60
2017-10-15T09:11:21.089Z,48.30
2017-10-15T09:13:48.546Z,48.60
2017-10-15T09:16:16.010Z,47.80
2017-10-15T09:18:43.461Z,47.50
2017-10-15T09:21:11.711Z,47.00
2017-10-15T09:23:39.157Z,47.00
2017-10-15T09:26:06.611Z,46.80
2017-10-15T09:28:34.068Z,46.50
2017-10-15T09:31:01.530Z,46.20
2017-10-15T09:33:28.977Z,45.90
2017-10-15T09:35:56.442Z,45.50
2017-10-15T09:38:23.962Z,45.30
2017-10-15T09:40:51.413Z,44.90
2017-10-15T09:43:19.627Z,44.20
2017-10-15T09:45:47.090Z,44.20
2017-10-15T09:48:14.537Z,43.90
2017-10-15T09:50:41.994Z,43.70
2017-10-15T09:53:09.456Z,43.40
2017-10-15T09:55:36.905Z,43.20
2017-10-15T09:58:04.362Z,43.00
2017-10-15T10:00:31.803Z,42.80
2017-10-15T10:02:59.262Z,42.50
2017-10-15T10:05:26.719Z,42.10
2017-10-15T10:07:54.169Z,41.90
2017-10-15T10:10:21.618Z,41.80
2017-10-15T10:12:49.089Z,41.60
2017-10-15T10:15:16.535Z,41.40
2017-10-15T10:17:43.985Z,41.10
2017-10-15T10:20:11.443Z,41.00
2017-10-15T10:22:39.657Z,40.70
2017-10-15T10:25:07.125Z,40.60
2017-10-15T10:27:34.587Z,40.50
2017-10-15T10:30:02.039Z,40.30
2017-10-15T10:32:29.486Z,40.10
2017-10-15T10:34:56.945Z,39.80
2017-10-15T10:37:24.394Z,39.60
2017-10-15T10:39:51.843Z,39.30
2017-10-15T10:42:19.318Z,39.00
2017-10-15T10:44:46.787Z,38.90
2017-10-15T10:47:14.230Z,38.60
2017-10-15T10:49:41.700Z,38.30
2017-10-15T10:52:09.146Z,38.20
2017-10-15T10:54:36.614Z,37.90
2017-10-15T10:57:04.057Z,37.50
2017-10-15T10:59:31.531Z,37.50
2017-10-15T11:01:58.993Z,37.20
2017-10-15T11:04:27.221Z,36.30
2017-10-15T11:06:54.670Z,36.20
2017-10-15T11:09:22.138Z,36.00
2017-10-15T11:11:49.598Z,35.70
2017-10-15T11:14:17.739Z,35.60
2017-10-15T11:16:45.228Z,35.50
2017-10-15T11:19:12.676Z,35.40
2017-10-15T11:21:40.140Z,35.40
2017-10-15T11:24:07.589Z,35.30
2017-10-15T11:26:35.039Z,35.20
2017-10-15T11:29:02.482Z,35.10
2017-10-15T11:31:29.936Z,34.80
2017-10-15T11:33:57.402Z,34.80
2017-10-15T11:36:24.843Z,34.70
2017-10-15T11:38:53.106Z,34.40
2017-10-15T11:41:21.328Z,34.10
2017-10-15T11:43:48.808Z,34.00
2017-10-15T11:46:17.015Z,33.60
2017-10-15T11:48:44.468Z,33.60
2017-10-15T11:51:12.689Z,33.00
2017-10-15T11:53:40.133Z,33.00
2017-10-15T11:56:07.617Z,32.90
2017-10-15T11:58:35.070Z,32.90
2017-10-15T12:01:02.532Z,32.70
2017-10-15T12:03:29.986Z,32.90
2017-10-15T12:05:58.206Z,33.00
2017-10-15T12:08:25.665Z,32.90
2017-10-15T12:10:53.113Z,32.90
2017-10-15T12:13:21.339Z,32.60
2017-10-15T12:15:48.812Z,32.60
2017-10-15T12:18:16.271Z,32.80
2017-10-15T12:20:43.754Z,32.90
2017-10-15T12:23:11.210Z,32.80
2017-10-15T12:25:38.673Z,33.60
2017-10-15T12:28:06.126Z,32.80
2017-10-15T12:30:33.586Z,32.70
2017-10-15T12:33:01.047Z,32.50
2017-10-15T12:35:28.505Z,32.80
2017-10-15T12:37:55.966Z,32.80
2017-10-15T12:40:23.409Z,33.00
2017-10-15T12:42:50.873Z,33.10
2017-10-15T12:45:19.124Z,33.00
2017-10-15T12:47:46.594Z,33.00
2017-10-15T12:50:14.063Z,33.40
2017-10-15T12:52:41.518Z,32.70
2017-10-15T12:55:08.969Z,32.60
2017-10-15T12:57:36.425Z,32.50
2017-10-15T13:00:03.878Z,32.30
2017-10-15T13:02:31.326Z,32.40
2017-10-15T13:04:58.790Z,32.40
2017-10-15T13:07:26.255Z,32.40
2017-10-15T13:09:53.711Z,32.50
2017-10-15T13:12:21.170Z,32.40
2017-10-15T13:14:48.615Z,32.30
2017-10-15T13:17:16.061Z,32.20
2017-10-15T13:19:43.520Z,32.30
2017-10-15T13:22:10.973Z,32.20
2017-10-15T13:24:38.434Z,32.20
2017-10-15T13:27:05.899Z,32.20
2017-10-15T13:29:33.349Z,32.10
2017-10-15T13:32:00.805Z,32.20
2017-10-15T13:34:28.272Z,32.00
2017-10-15T13:36:55.731Z,32.10
2017-10-15T13:39:23.182Z,32.00
2017-10-15T13:41:50.633Z,32.30
2017-10-15T13:44:18.110Z,32.60
2017-10-15T13:46:45.554Z,33.00
2017-10-15T13:49:13.012Z,34.20
2017-10-15T13:51:40.469Z,35.50
2017-10-15T13:54:07.925Z,36.60
2017-10-15T13:56:36.130Z,38.30
2017-10-15T13:59:03.625Z,38.20
2017-10-15T14:01:31.078Z,38.90
2017-10-15T14:03:58.534Z,39.30
2017-10-15T14:06:25.978Z,39.50
2017-10-15T14:08:54.202Z,39.00
2017-10-15T14:11:21.651Z,39.00
2017-10-15T14:13:49.109Z,39.20
2017-10-15T14:16:16.569Z,39.40
2017-10-15T14:18:44.022Z,39.30
2017-10-15T14:21:11.469Z,39.60
2017-10-15T14:23:38.986Z,40.20
2017-10-15T14:26:06.432Z,40.60
2017-10-15T14:28:33.903Z,40.70
2017-10-15T14:31:01.365Z,40.70
2017-10-15T14:33:29.583Z,39.20
2017-10-15T14:35:57.044Z,39.20
2017-10-15T14:38:24.502Z,38.50
2017-10-15T14:40:51.964Z,38.40
2017-10-15T14:43:20.178Z,38.40
2017-10-15T14:45:48.454Z,38.70
2017-10-15T14:48:15.906Z,38.70
2017-10-15T14:50:43.370Z,39.00
2017-10-15T14:53:10.806Z,39.40
2017-10-15T14:55:39.026Z,40.40
2017-10-15T14:58:06.469Z,40.40
2017-10-15T15:00:33.940Z,40.80
2017-10-15T15:03:01.390Z,41.40
2017-10-15T15:05:29.631Z,42.20
2017-10-15T15:07:57.069Z,42.20
2017-10-15T15:10:24.514Z,42.50
2017-10-15T15:12:51.986Z,42.90
2017-10-15T15:15:19.461Z,43.10
2017-10-15T15:17:46.922Z,43.30
2017-10-15T15:20:14.379Z,43.50
2017-10-15T15:22:41.845Z,43.70
2017-10-15T15:25:09.294Z,43.80
2017-10-15T15:27:36.755Z,44.10
2017-10-15T15:30:04.206Z,44.20
2017-10-15T15:32:31.660Z,44.40
2017-10-15T15:34:59.134Z,44.50
2017-10-15T15:37:26.598Z,44.60
2017-10-15T15:39:55.636Z,44.80
2017-10-15T15:42:23.087Z,44.70
2017-10-15T15:44:50.549Z,44.80
2017-10-15T15:47:18.009Z,44.80
2017-10-15T15:49:45.467Z,44.80
2017-10-15T15:52:12.918Z,44.90
2017-10-15T15:54:40.370Z,45.70
2017-10-15T15:57:07.846Z,45.10
2017-10-15T15:59:35.294Z,45.40
2017-10-15T16:02:02.743Z,45.90
2017-10-15T16:04:30.958Z,46.70
2017-10-15T16:06:58.407Z,46.70
2017-10-15T16:09:25.879Z,47.00
2017-10-15T16:11:53.334Z,47.20
2017-10-15T16:14:20.796Z,47.60
2017-10-15T16:16:48.245Z,47.90
2017-10-15T16:19:15.714Z,48.10
2017-10-15T16:21:43.174Z,48.20
2017-10-15T16:24:10.622Z,48.40
2017-10-15T16:26:38.066Z,48.50
2017-10-15T16:29:06.290Z,48.80
2017-10-15T16:31:34.499Z,49.10
2017-10-15T16:34:01.949Z,49.00
2017-10-15T16:36:30.166Z,49.30
2017-10-15T16:38:57.617Z,49.30
2017-10-15T16:41:25.070Z,49.40
2017-10-15T16:43:54.031Z,49.80
2017-10-15T16:46:21.486Z,50.30
2017-10-15T16:48:49.726Z,49.90
2017-10-15T16:51:17.941Z,50.10
2017-10-15T16:53:45.406Z,50.00
2017-10-15T16:56:12.858Z,50.10
2017-10-15T16:58:40.332Z,50.20
2017-10-15T17:01:08.547Z,50.40
2017-10-15T17:03:36.757Z,50.50
2017-10-15T17:06:04.221Z,50.40
2017-10-15T17:08:31.678Z,50.60
2017-10-15T17:10:59.145Z,50.70
2017-10-15T17:13:26.599Z,50.60
2017-10-15T17:15:54.053Z,50.80
2017-10-15T17:18:21.493Z,50.90
2017-10-15T17:20:48.971Z,51.00
2017-10-15T17:23:16.431Z,51.10
2017-10-15T17:25:43.895Z,51.10
2017-10-15T17:28:11.361Z,51.10
2017-10-15T17:30:39.577Z,51.30
2017-10-15T17:33:07.108Z,51.30
2017-10-15T17:35:34.570Z,51.30
2017-10-15T17:38:02.023Z,51.40
2017-10-15T17:40:30.237Z,51.60
2017-10-15T17:42:57.696Z,51.60
2017-10-15T17:45:25.153Z,51.60
2017-10-15T17:47:52.589Z,51.70
2017-10-15T17:50:20.808Z,51.80
2017-10-15T17:52:59.157Z,51.80
2017-10-15T17:55:26.623Z,51.90
2017-10-15T17:57:54.850Z,52.00
2017-10-15T18:00:22.305Z,52.00
2017-10-15T18:02:49.764Z,52.10
2017-10-15T18:05:17.266Z,52.10
2017-10-15T18:07:44.712Z,52.20
2017-10-15T18:10:12.171Z,52.20
2017-10-15T18:12:39.630Z,52.30
2017-10-15T18:15:07.106Z,52.30
2017-10-15T18:17:35.379Z,52.50
2017-10-15T18:20:02.833Z,52.40
2017-10-15T18:22:30.305Z,52.50
2017-10-15T18:24:58.510Z,52.60
2017-10-15T18:27:25.975Z,52.60
2017-10-15T18:29:53.432Z,52.60
2017-10-15T18:32:20.884Z,52.70
2017-10-15T18:34:48.349Z,52.70
2017-10-15T18:37:15.845Z,52.80
2017-10-15T18:39:44.069Z,52.90
2017-10-15T18:42:11.531Z,52.90
2017-10-15T18:44:38.982Z,52.90
2017-10-15T18:47:07.189Z,53.00
2017-10-15T18:49:34.660Z,53.00
2017-10-15T18:52:02.110Z,53.00
2017-10-15T18:54:29.558Z,53.10
2017-10-15T18:56:57.819Z,53.20
2017-10-15T18:59:25.288Z,53.10
2017-10-15T19:01:52.724Z,53.20
2017-10-15T19:04:20.183Z,53.20
2017-10-15T19:06:47.626Z,53.30
2017-10-15T19:09:15.131Z,53.30
2017-10-15T19:11:42.569Z,53.30
2017-10-15T19:14:10.026Z,53.40
2017-10-15T19:16:37.466Z,53.40
2017-10-15T19:19:04.958Z,53.40
2017-10-15T19:21:32.410Z,53.40
2017-10-15T19:23:59.862Z,53.50
2017-10-15T19:26:27.309Z,53.50
2017-10-15T19:28:54.769Z,53.50
2017-10-15T19:31:22.233Z,53.60
2017-10-15T19:33:49.717Z,53.60
2017-10-15T19:36:17.181Z,53.70
2017-10-15T19:38:44.631Z,53.60
2017-10-15T19:41:12.081Z,53.70
2017-10-15T19:43:39.525Z,53.70
2017-10-15T19:46:07.025Z,53.80
2017-10-15T19:48:35.241Z,53.80
2017-10-15T19:51:02.693Z,53.80
2017-10-15T19:53:30.146Z,53.80
2017-10-15T19:55:58.358Z,53.90
2017-10-15T19:58:25.808Z,53.90
2017-10-15T20:00:53.271Z,54.00
2017-10-15T20:03:20.726Z,54.00
2017-10-15T20:05:48.199Z,54.00
2017-10-15T20:08:16.431Z,54.00
2017-10-15T20:10:43.890Z,54.00
2017-10-15T20:13:11.402Z,54.00
2017-10-15T20:15:39.623Z,54.20
2017-10-15T20:18:12.647Z,54.20
2017-10-15T20:20:40.143Z,54.10
2017-10-15T20:23:07.602Z,54.20
2017-10-15T20:25:35.055Z,54.20
2017-10-15T20:28:02.535Z,54.30
2017-10-15T20:30:29.997Z,54.20
2017-10-15T20:32:57.458Z,54.30
2017-10-15T20:35:25.677Z,54.40
2017-10-15T20:37:54.629Z,54.30
2017-10-15T20:40:22.087Z,54.30
2017-10-15T20:42:49.555Z,54.40
2017-10-15T20:45:16.997Z,54.40
2017-10-15T20:47:44.449Z,54.40
2017-10-15T20:50:11.901Z,54.40
2017-10-15T20:52:40.110Z,54.50
2017-10-15T20:55:07.553Z,54.50
2017-10-15T20:57:35.019Z,54.40
2017-10-15T21:00:03.234Z,54.60
2017-10-15T21:02:31.572Z,54.50
2017-10-15T21:04:59.306Z,55.10
2017-10-15T21:07:26.762Z,54.50
2017-10-15T21:09:54.229Z,54.50
2017-10-15T21:12:21.682Z,54.60
2017-10-15T21:14:49.139Z,54.60
2017-10-15T21:17:16.595Z,54.50
2017-10-15T21:19:44.078Z,54.50
2017-10-15T21:22:11.526Z,54.50
2017-10-15T21:24:39.019Z,54.60
2017-10-15T21:27:07.777Z,54.60
2017-10-15T21:29:35.262Z,54.50
2017-10-15T21:32:02.895Z,54.50
2017-10-15T21:34:30.489Z,54.60
2017-10-15T21:36:58.002Z,54.60
2017-10-15T21:39:25.458Z,54.50
2017-10-15T21:41:52.907Z,54.60
2017-10-15T21:44:20.364Z,54.60
2017-10-15T21:46:47.799Z,54.60
2017-10-15T21:49:15.269Z,54.60
2017-10-15T21:51:42.712Z,54.70
2017-10-15T21:54:10.909Z,54.80
2017-10-15T21:56:38.366Z,55.40
2017-10-15T21:59:05.831Z,54.80
2017-10-15T22:01:33.277Z,54.80
2017-10-15T22:04:00.731Z,54.80
2017-10-15T22:06:28.940Z,54.80
2017-10-15T22:08:56.394Z,54.80
2017-10-15T22:11:23.906Z,54.90
2017-10-15T22:13:52.110Z,55.00
2017-10-15T22:16:19.566Z,55.00
2017-10-15T22:18:52.567Z,55.00
2017-10-15T22:21:25.681Z,55.00
2017-10-15T22:23:53.129Z,55.00
2017-10-15T22:26:20.580Z,55.00
2017-10-15T22:28:48.029Z,55.00
2017-10-15T22:31:15.479Z,55.00
2017-10-15T22:33:42.925Z,55.00
2017-10-15T22:36:10.379Z,55.00
2017-10-15T22:38:37.856Z,55.00
2017-10-15T22:41:05.326Z,55.10
2017-10-15T22:43:33.554Z,55.20
2017-10-15T22:46:01.014Z,55.20
2017-10-15T22:48:28.472Z,55.20
2017-10-15T22:50:55.947Z,55.20
2017-10-15T22:53:23.401Z,55.30
2017-10-15T22:55:50.860Z,55.30
2017-10-15T22:58:18.332Z,55.20
2017-10-15T23:00:45.770Z,55.30
2017-10-15T23:03:13.234Z,55.40
2017-10-15T23:05:41.457Z,55.40
2017-10-15T23:08:08.902Z,55.40
2017-10-15T23:10:36.379Z,55.40
2017-10-15T23:13:04.607Z,55.50
2017-10-15T23:15:32.059Z,55.50
2017-10-15T23:17:59.509Z,55.50
2017-10-15T23:20:26.979Z,55.40
2017-10-15T23:22:54.425Z,55.40
2017-10-15T23:25:21.894Z,55.40
2017-10-15T23:27:49.345Z,55.60
2017-10-15T23:30:16.830Z,55.60
2017-10-15T23:32:44.278Z,55.60
2017-10-15T23:35:11.736Z,55.50
2017-10-15T23:37:39.190Z,55.50
2017-10-15T23:40:06.661Z,55.60
2017-10-15T23:42:34.105Z,55.60
2017-10-15T23:45:01.556Z,55.60
2017-10-15T23:47:29.005Z,55.60
2017-10-15T23:49:56.458Z,55.60
2017-10-15T23:52:23.947Z,55.70
2017-10-15T23:54:51.398Z,55.60
2017-10-15T23:57:18.860Z,55.70
2017-10-15T23:59:46.335Z,55.70
